sensor_id;sensor_type;location;lat;lon;timestamp;P1;durP1;ratioP1;P2;durP2;ratioP2
32399;SDS011;45045;45.440;9.178;2023-07-31T00:00:33;12.43;;;8.50;;
32399;SDS011;45045;45.440;9.178;2023-07-31T00:02:59;12.65;;;10.13;;
32399;SDS011;45045;45.440;9.178;2023-07-31T00:05:24;12.70;;;11.18;;
32399;SDS011;45045;45.440;9.178;2023-07-31T00:07:50;12.20;;;10.90;;
32399;SDS011;45045;45.440;9.178;2023-07-31T00:10:16;13.25;;;10.52;;
32399;SDS011;45045;45.440;9.178;2023-07-31T00:12:42;12.10;;;10.75;;
32399;SDS011;45045;45.440;9.178;2023-07-31T00:15:10;16.33;;;11.50;;
32399;SDS011;45045;45.440;9.178;2023-07-31T00:17:36;13.45;;;11.23;;
32399;SDS011;45045;45.440;9.178;2023-07-31T00:20:02;14.57;;;12.38;;
32399;SDS011;45045;45.440;9.178;2023-07-31T00:22:28;15.02;;;12.70;;
32399;SDS011;45045;45.440;9.178;2023-07-31T00:24:55;14.65;;;13.13;;
32399;SDS011;45045;45.440;9.178;2023-07-31T00:27:22;14.00;;;12.20;;
32399;SDS011;45045;45.440;9.178;2023-07-31T00:29:47;15.00;;;13.35;;
32399;SDS011;45045;45.440;9.178;2023-07-31T00:32:13;15.75;;;13.45;;
32399;SDS011;45045;45.440;9.178;2023-07-31T00:34:39;15.13;;;13.02;;
32399;SDS011;45045;45.440;9.178;2023-07-31T00:37:04;13.98;;;12.57;;
32399;SDS011;45045;45.440;9.178;2023-07-31T00:39:31;13.80;;;12.38;;
32399;SDS011;45045;45.440;9.178;2023-07-31T00:41:59;13.00;;;11.38;;
32399;SDS011;45045;45.440;9.178;2023-07-31T00:44:24;13.27;;;11.88;;
32399;SDS011;45045;45.440;9.178;2023-07-31T00:46:50;13.85;;;11.65;;
32399;SDS011;45045;45.440;9.178;2023-07-31T00:49:15;15.77;;;11.32;;
32399;SDS011;45045;45.440;9.178;2023-07-31T00:51:41;12.90;;;11.15;;
32399;SDS011;45045;45.440;9.178;2023-07-31T00:54:07;16.52;;;12.43;;
32399;SDS011;45045;45.440;9.178;2023-07-31T00:56:33;17.38;;;12.32;;
32399;SDS011;45045;45.440;9.178;2023-07-31T00:58:59;15.50;;;12.65;;
32399;SDS011;45045;45.440;9.178;2023-07-31T01:01:24;16.15;;;11.95;;
32399;SDS011;45045;45.440;9.178;2023-07-31T01:03:50;14.15;;;12.00;;
32399;SDS011;45045;45.440;9.178;2023-07-31T01:09:04;13.70;;;12.23;;
32399;SDS011;45045;45.440;9.178;2023-07-31T01:11:42;15.02;;;12.35;;
32399;SDS011;45045;45.440;9.178;2023-07-31T01:14:13;13.00;;;11.68;;
32399;SDS011;45045;45.440;9.178;2023-07-31T01:16:39;12.82;;;11.30;;
32399;SDS011;45045;45.440;9.178;2023-07-31T01:19:05;14.38;;;10.82;;
32399;SDS011;45045;45.440;9.178;2023-07-31T01:27:24;13.98;;;10.48;;
32399;SDS011;45045;45.440;9.178;2023-07-31T01:30:00;10.80;;;9.70;;
32399;SDS011;45045;45.440;9.178;2023-07-31T01:32:35;14.85;;;10.27;;
32399;SDS011;45045;45.440;9.178;2023-07-31T01:35:04;12.77;;;10.18;;
32399;SDS011;45045;45.440;9.178;2023-07-31T01:37:31;13.68;;;9.57;;
32399;SDS011;45045;45.440;9.178;2023-07-31T01:39:56;10.45;;;9.13;;
32399;SDS011;45045;45.440;9.178;2023-07-31T01:42:22;11.02;;;9.15;;
32399;SDS011;45045;45.440;9.178;2023-07-31T01:44:48;10.15;;;8.02;;
32399;SDS011;45045;45.440;9.178;2023-07-31T01:47:13;10.55;;;8.30;;
32399;SDS011;45045;45.440;9.178;2023-07-31T01:49:39;9.63;;;7.60;;
32399;SDS011;45045;45.440;9.178;2023-07-31T01:52:05;10.50;;;9.05;;
32399;SDS011;45045;45.440;9.178;2023-07-31T01:54:31;11.45;;;8.20;;
32399;SDS011;45045;45.440;9.178;2023-07-31T01:56:56;11.38;;;7.68;;
32399;SDS011;45045;45.440;9.178;2023-07-31T01:59:22;10.43;;;7.75;;
32399;SDS011;45045;45.440;9.178;2023-07-31T02:01:48;11.35;;;6.90;;
32399;SDS011;45045;45.440;9.178;2023-07-31T02:04:13;9.13;;;7.13;;
32399;SDS011;45045;45.440;9.178;2023-07-31T02:06:39;8.43;;;6.55;;
32399;SDS011;45045;45.440;9.178;2023-07-31T02:09:05;8.45;;;6.93;;
32399;SDS011;45045;45.440;9.178;2023-07-31T02:11:30;9.02;;;6.63;;
32399;SDS011;45045;45.440;9.178;2023-07-31T02:13:56;9.57;;;6.80;;
32399;SDS011;45045;45.440;9.178;2023-07-31T02:16:21;7.90;;;6.32;;
32399;SDS011;45045;45.440;9.178;2023-07-31T02:18:47;9.30;;;5.93;;
32399;SDS011;45045;45.440;9.178;2023-07-31T02:21:13;10.77;;;5.88;;
32399;SDS011;45045;45.440;9.178;2023-07-31T02:23:38;8.05;;;5.18;;
32399;SDS011;45045;45.440;9.178;2023-07-31T02:26:04;7.65;;;5.53;;
32399;SDS011;45045;45.440;9.178;2023-07-31T02:28:30;8.23;;;5.68;;
32399;SDS011;45045;45.440;9.178;2023-07-31T02:30:55;7.22;;;4.90;;
32399;SDS011;45045;45.440;9.178;2023-07-31T02:33:21;7.05;;;5.63;;
32399;SDS011;45045;45.440;9.178;2023-07-31T02:35:47;9.88;;;5.43;;
32399;SDS011;45045;45.440;9.178;2023-07-31T02:38:12;6.85;;;4.70;;
32399;SDS011;45045;45.440;9.178;2023-07-31T02:40:39;7.28;;;5.45;;
32399;SDS011;45045;45.440;9.178;2023-07-31T02:43:06;8.77;;;4.93;;
32399;SDS011;45045;45.440;9.178;2023-07-31T02:45:32;6.15;;;4.70;;
32399;SDS011;45045;45.440;9.178;2023-07-31T02:47:58;8.23;;;4.85;;
32399;SDS011;45045;45.440;9.178;2023-07-31T02:50:24;6.35;;;4.80;;
32399;SDS011;45045;45.440;9.178;2023-07-31T02:52:50;7.80;;;4.93;;
32399;SDS011;45045;45.440;9.178;2023-07-31T02:55:15;8.68;;;5.28;;
32399;SDS011;45045;45.440;9.178;2023-07-31T02:57:41;12.18;;;5.10;;
32399;SDS011;45045;45.440;9.178;2023-07-31T03:00:07;8.13;;;4.45;;
32399;SDS011;45045;45.440;9.178;2023-07-31T03:02:33;6.68;;;4.28;;
32399;SDS011;45045;45.440;9.178;2023-07-31T03:04:59;7.25;;;5.00;;
32399;SDS011;45045;45.440;9.178;2023-07-31T03:07:24;6.50;;;4.53;;
32399;SDS011;45045;45.440;9.178;2023-07-31T03:09:50;6.20;;;4.50;;
32399;SDS011;45045;45.440;9.178;2023-07-31T03:12:16;7.47;;;4.65;;
32399;SDS011;45045;45.440;9.178;2023-07-31T03:14:42;6.25;;;4.28;;
32399;SDS011;45045;45.440;9.178;2023-07-31T03:17:07;7.15;;;4.55;;
32399;SDS011;45045;45.440;9.178;2023-07-31T03:19:33;7.72;;;4.40;;
32399;SDS011;45045;45.440;9.178;2023-07-31T03:21:59;6.45;;;4.63;;
32399;SDS011;45045;45.440;9.178;2023-07-31T03:24:25;6.75;;;4.47;;
32399;SDS011;45045;45.440;9.178;2023-07-31T03:26:51;7.03;;;4.38;;
32399;SDS011;45045;45.440;9.178;2023-07-31T03:29:17;5.82;;;4.18;;
32399;SDS011;45045;45.440;9.178;2023-07-31T03:31:42;6.72;;;4.55;;
32399;SDS011;45045;45.440;9.178;2023-07-31T03:34:08;6.10;;;4.05;;
32399;SDS011;45045;45.440;9.178;2023-07-31T03:36:34;5.30;;;3.58;;
32399;SDS011;45045;45.440;9.178;2023-07-31T03:38:59;6.35;;;4.53;;
32399;SDS011;45045;45.440;9.178;2023-07-31T03:41:25;6.30;;;4.07;;
32399;SDS011;45045;45.440;9.178;2023-07-31T03:43:51;5.40;;;3.50;;
32399;SDS011;45045;45.440;9.178;2023-07-31T03:46:23;6.60;;;3.70;;
32399;SDS011;45045;45.440;9.178;2023-07-31T03:48:49;6.10;;;3.75;;
32399;SDS011;45045;45.440;9.178;2023-07-31T03:51:15;6.47;;;3.75;;
32399;SDS011;45045;45.440;9.178;2023-07-31T03:53:42;5.63;;;3.65;;
32399;SDS011;45045;45.440;9.178;2023-07-31T03:56:08;5.97;;;3.85;;
32399;SDS011;45045;45.440;9.178;2023-07-31T03:58:34;7.47;;;4.10;;
32399;SDS011;45045;45.440;9.178;2023-07-31T04:01:01;7.45;;;4.20;;
32399;SDS011;45045;45.440;9.178;2023-07-31T04:03:26;5.55;;;3.60;;
32399;SDS011;45045;45.440;9.178;2023-07-31T04:05:53;6.95;;;3.85;;
32399;SDS011;45045;45.440;9.178;2023-07-31T04:08:20;5.63;;;3.67;;
32399;SDS011;45045;45.440;9.178;2023-07-31T04:10:45;6.85;;;3.95;;
32399;SDS011;45045;45.440;9.178;2023-07-31T04:13:12;6.75;;;4.18;;
32399;SDS011;45045;45.440;9.178;2023-07-31T04:15:38;5.65;;;4.18;;
32399;SDS011;45045;45.440;9.178;2023-07-31T04:18:04;8.77;;;4.22;;
32399;SDS011;45045;45.440;9.178;2023-07-31T04:20:30;6.82;;;4.10;;
32399;SDS011;45045;45.440;9.178;2023-07-31T04:22:56;7.30;;;4.47;;
32399;SDS011;45045;45.440;9.178;2023-07-31T04:25:21;8.10;;;4.28;;
32399;SDS011;45045;45.440;9.178;2023-07-31T04:27:47;5.88;;;4.47;;
32399;SDS011;45045;45.440;9.178;2023-07-31T04:30:13;8.20;;;4.70;;
32399;SDS011;45045;45.440;9.178;2023-07-31T04:32:39;6.15;;;3.80;;
32399;SDS011;45045;45.440;9.178;2023-07-31T04:35:04;5.75;;;4.00;;
32399;SDS011;45045;45.440;9.178;2023-07-31T04:37:30;7.13;;;4.47;;
32399;SDS011;45045;45.440;9.178;2023-07-31T04:39:56;6.65;;;4.05;;
32399;SDS011;45045;45.440;9.178;2023-07-31T04:42:22;8.95;;;4.13;;
32399;SDS011;45045;45.440;9.178;2023-07-31T04:44:48;8.30;;;4.50;;
32399;SDS011;45045;45.440;9.178;2023-07-31T04:47:13;5.70;;;4.13;;
32399;SDS011;45045;45.440;9.178;2023-07-31T04:49:39;7.38;;;3.55;;
32399;SDS011;45045;45.440;9.178;2023-07-31T04:52:05;6.38;;;4.22;;
32399;SDS011;45045;45.440;9.178;2023-07-31T04:54:31;7.72;;;3.70;;
32399;SDS011;45045;45.440;9.178;2023-07-31T04:56:56;8.32;;;4.07;;
32399;SDS011;45045;45.440;9.178;2023-07-31T04:59:22;5.82;;;4.07;;
32399;SDS011;45045;45.440;9.178;2023-07-31T05:01:47;10.30;;;4.10;;
32399;SDS011;45045;45.440;9.178;2023-07-31T05:04:13;5.75;;;3.67;;
32399;SDS011;45045;45.440;9.178;2023-07-31T05:06:39;6.18;;;3.72;;
32399;SDS011;45045;45.440;9.178;2023-07-31T05:09:06;7.03;;;4.35;;
32399;SDS011;45045;45.440;9.178;2023-07-31T05:11:31;8.02;;;4.22;;
32399;SDS011;45045;45.440;9.178;2023-07-31T05:13:57;8.43;;;3.83;;
32399;SDS011;45045;45.440;9.178;2023-07-31T05:16:23;9.23;;;3.88;;
32399;SDS011;45045;45.440;9.178;2023-07-31T05:18:48;6.07;;;3.72;;
32399;SDS011;45045;45.440;9.178;2023-07-31T05:21:14;5.80;;;3.85;;
32399;SDS011;45045;45.440;9.178;2023-07-31T05:23:40;6.00;;;3.80;;
32399;SDS011;45045;45.440;9.178;2023-07-31T05:26:06;7.38;;;3.90;;
32399;SDS011;45045;45.440;9.178;2023-07-31T05:28:33;6.18;;;4.35;;
32399;SDS011;45045;45.440;9.178;2023-07-31T05:31:00;6.53;;;4.20;;
32399;SDS011;45045;45.440;9.178;2023-07-31T05:33:26;5.25;;;4.00;;
32399;SDS011;45045;45.440;9.178;2023-07-31T05:35:52;5.95;;;3.75;;
32399;SDS011;45045;45.440;9.178;2023-07-31T05:38:18;6.25;;;3.65;;
32399;SDS011;45045;45.440;9.178;2023-07-31T05:40:44;8.95;;;4.15;;
32399;SDS011;45045;45.440;9.178;2023-07-31T05:43:09;8.85;;;4.40;;
32399;SDS011;45045;45.440;9.178;2023-07-31T05:45:35;6.85;;;3.50;;
32399;SDS011;45045;45.440;9.178;2023-07-31T05:48:01;6.55;;;3.88;;
32399;SDS011;45045;45.440;9.178;2023-07-31T05:50:28;6.47;;;4.45;;
32399;SDS011;45045;45.440;9.178;2023-07-31T05:52:53;6.60;;;3.58;;
32399;SDS011;45045;45.440;9.178;2023-07-31T05:55:19;6.57;;;3.53;;
32399;SDS011;45045;45.440;9.178;2023-07-31T05:57:45;5.15;;;3.47;;
32399;SDS011;45045;45.440;9.178;2023-07-31T06:00:12;6.03;;;3.33;;
32399;SDS011;45045;45.440;9.178;2023-07-31T06:02:38;5.15;;;3.50;;
32399;SDS011;45045;45.440;9.178;2023-07-31T06:05:04;6.10;;;3.75;;
32399;SDS011;45045;45.440;9.178;2023-07-31T06:07:33;6.78;;;3.50;;
32399;SDS011;45045;45.440;9.178;2023-07-31T06:09:59;5.22;;;3.67;;
32399;SDS011;45045;45.440;9.178;2023-07-31T06:12:29;7.47;;;3.35;;
32399;SDS011;45045;45.440;9.178;2023-07-31T06:14:56;7.50;;;5.03;;
32399;SDS011;45045;45.440;9.178;2023-07-31T06:17:21;9.23;;;6.55;;
32399;SDS011;45045;45.440;9.178;2023-07-31T06:19:47;5.35;;;3.13;;
32399;SDS011;45045;45.440;9.178;2023-07-31T06:22:13;5.45;;;3.30;;
32399;SDS011;45045;45.440;9.178;2023-07-31T06:24:38;7.50;;;3.33;;
32399;SDS011;45045;45.440;9.178;2023-07-31T06:27:04;5.22;;;3.53;;
32399;SDS011;45045;45.440;9.178;2023-07-31T06:29:31;7.97;;;2.95;;
32399;SDS011;45045;45.440;9.178;2023-07-31T06:31:56;7.40;;;3.03;;
32399;SDS011;45045;45.440;9.178;2023-07-31T06:34:22;6.43;;;2.75;;
32399;SDS011;45045;45.440;9.178;2023-07-31T06:36:48;4.15;;;2.55;;
32399;SDS011;45045;45.440;9.178;2023-07-31T06:39:13;3.95;;;2.70;;
32399;SDS011;45045;45.440;9.178;2023-07-31T06:41:39;5.13;;;2.47;;
32399;SDS011;45045;45.440;9.178;2023-07-31T06:44:05;4.57;;;2.53;;
32399;SDS011;45045;45.440;9.178;2023-07-31T06:46:30;5.10;;;2.75;;
32399;SDS011;45045;45.440;9.178;2023-07-31T06:48:56;4.13;;;2.80;;
32399;SDS011;45045;45.440;9.178;2023-07-31T06:51:22;5.20;;;2.38;;
32399;SDS011;45045;45.440;9.178;2023-07-31T06:53:47;3.60;;;2.10;;
32399;SDS011;45045;45.440;9.178;2023-07-31T06:56:13;5.25;;;2.47;;
32399;SDS011;45045;45.440;9.178;2023-07-31T06:58:39;4.25;;;2.20;;
32399;SDS011;45045;45.440;9.178;2023-07-31T07:01:04;3.83;;;2.00;;
32399;SDS011;45045;45.440;9.178;2023-07-31T07:03:30;4.25;;;1.98;;
32399;SDS011;45045;45.440;9.178;2023-07-31T07:05:57;4.40;;;2.10;;
32399;SDS011;45045;45.440;9.178;2023-07-31T07:08:23;6.45;;;2.00;;
32399;SDS011;45045;45.440;9.178;2023-07-31T07:10:49;3.63;;;1.60;;
32399;SDS011;45045;45.440;9.178;2023-07-31T07:13:15;7.38;;;1.80;;
32399;SDS011;45045;45.440;9.178;2023-07-31T07:15:41;2.95;;;1.70;;
32399;SDS011;45045;45.440;9.178;2023-07-31T07:18:06;7.97;;;2.42;;
32399;SDS011;45045;45.440;9.178;2023-07-31T07:20:32;3.97;;;1.83;;
32399;SDS011;45045;45.440;9.178;2023-07-31T07:22:58;3.63;;;1.90;;
32399;SDS011;45045;45.440;9.178;2023-07-31T07:25:23;3.47;;;2.05;;
32399;SDS011;45045;45.440;9.178;2023-07-31T07:27:49;3.13;;;1.80;;
32399;SDS011;45045;45.440;9.178;2023-07-31T07:30:15;4.63;;;2.28;;
32399;SDS011;45045;45.440;9.178;2023-07-31T07:32:40;5.95;;;2.08;;
32399;SDS011;45045;45.440;9.178;2023-07-31T07:35:06;3.47;;;1.88;;
32399;SDS011;45045;45.440;9.178;2023-07-31T07:37:32;5.72;;;2.30;;
32399;SDS011;45045;45.440;9.178;2023-07-31T07:39:58;3.58;;;1.73;;
32399;SDS011;45045;45.440;9.178;2023-07-31T07:42:24;4.55;;;2.03;;
32399;SDS011;45045;45.440;9.178;2023-07-31T07:44:50;3.75;;;2.00;;
32399;SDS011;45045;45.440;9.178;2023-07-31T07:47:15;4.22;;;2.53;;
32399;SDS011;45045;45.440;9.178;2023-07-31T07:49:41;4.28;;;2.00;;
32399;SDS011;45045;45.440;9.178;2023-07-31T07:52:07;3.42;;;1.90;;
32399;SDS011;45045;45.440;9.178;2023-07-31T07:54:32;3.92;;;1.98;;
32399;SDS011;45045;45.440;9.178;2023-07-31T07:56:58;4.63;;;1.92;;
32399;SDS011;45045;45.440;9.178;2023-07-31T07:59:24;4.72;;;2.03;;
32399;SDS011;45045;45.440;9.178;2023-07-31T08:01:50;6.82;;;2.22;;
32399;SDS011;45045;45.440;9.178;2023-07-31T08:04:15;4.53;;;2.20;;
32399;SDS011;45045;45.440;9.178;2023-07-31T08:06:41;4.85;;;2.20;;
32399;SDS011;45045;45.440;9.178;2023-07-31T08:09:07;4.30;;;2.10;;
32399;SDS011;45045;45.440;9.178;2023-07-31T08:11:33;4.32;;;2.00;;
32399;SDS011;45045;45.440;9.178;2023-07-31T08:13:59;3.60;;;2.00;;
32399;SDS011;45045;45.440;9.178;2023-07-31T08:16:25;3.92;;;2.28;;
32399;SDS011;45045;45.440;9.178;2023-07-31T08:18:51;6.95;;;2.40;;
32399;SDS011;45045;45.440;9.178;2023-07-31T08:21:16;4.05;;;2.13;;
32399;SDS011;45045;45.440;9.178;2023-07-31T08:23:43;2.83;;;1.60;;
32399;SDS011;45045;45.440;9.178;2023-07-31T08:26:14;5.32;;;1.83;;
32399;SDS011;45045;45.440;9.178;2023-07-31T08:28:41;5.57;;;2.20;;
32399;SDS011;45045;45.440;9.178;2023-07-31T08:31:06;4.60;;;2.25;;
32399;SDS011;45045;45.440;9.178;2023-07-31T08:33:32;6.15;;;2.67;;
32399;SDS011;45045;45.440;9.178;2023-07-31T08:35:57;6.28;;;3.08;;
32399;SDS011;45045;45.440;9.178;2023-07-31T08:38:24;7.32;;;2.75;;
32399;SDS011;45045;45.440;9.178;2023-07-31T08:40:50;4.78;;;2.97;;
32399;SDS011;45045;45.440;9.178;2023-07-31T08:43:16;4.65;;;2.78;;
32399;SDS011;45045;45.440;9.178;2023-07-31T08:45:42;4.47;;;2.85;;
32399;SDS011;45045;45.440;9.178;2023-07-31T08:48:08;4.95;;;2.97;;
32399;SDS011;45045;45.440;9.178;2023-07-31T08:50:34;6.97;;;3.30;;
32399;SDS011;45045;45.440;9.178;2023-07-31T08:53:01;6.35;;;4.47;;
32399;SDS011;45045;45.440;9.178;2023-07-31T08:55:27;5.68;;;2.80;;
32399;SDS011;45045;45.440;9.178;2023-07-31T08:57:53;4.43;;;3.00;;
32399;SDS011;45045;45.440;9.178;2023-07-31T09:00:20;6.80;;;4.07;;
32399;SDS011;45045;45.440;9.178;2023-07-31T09:03:02;8.82;;;3.25;;
32399;SDS011;45045;45.440;9.178;2023-07-31T09:05:33;8.07;;;4.47;;
32399;SDS011;45045;45.440;9.178;2023-07-31T09:08:00;7.13;;;3.90;;
32399;SDS011;45045;45.440;9.178;2023-07-31T09:10:29;6.28;;;3.50;;
32399;SDS011;45045;45.440;9.178;2023-07-31T09:12:55;7.72;;;4.53;;
32399;SDS011;45045;45.440;9.178;2023-07-31T09:15:21;6.63;;;4.80;;
32399;SDS011;45045;45.440;9.178;2023-07-31T09:17:48;6.57;;;4.30;;
32399;SDS011;45045;45.440;9.178;2023-07-31T09:20:27;6.10;;;4.07;;
32399;SDS011;45045;45.440;9.178;2023-07-31T09:22:52;6.03;;;4.43;;
32399;SDS011;45045;45.440;9.178;2023-07-31T09:25:22;6.80;;;4.97;;
32399;SDS011;45045;45.440;9.178;2023-07-31T09:27:59;7.43;;;6.07;;
32399;SDS011;45045;45.440;9.178;2023-07-31T09:30:29;6.03;;;4.75;;
32399;SDS011;45045;45.440;9.178;2023-07-31T09:33:05;8.07;;;4.95;;
32399;SDS011;45045;45.440;9.178;2023-07-31T09:35:32;8.13;;;5.55;;
32399;SDS011;45045;45.440;9.178;2023-07-31T09:38:09;9.25;;;6.30;;
32399;SDS011;45045;45.440;9.178;2023-07-31T09:40:37;7.55;;;6.57;;
32399;SDS011;45045;45.440;9.178;2023-07-31T09:43:05;8.93;;;6.10;;
32399;SDS011;45045;45.440;9.178;2023-07-31T09:45:35;7.35;;;5.47;;
32399;SDS011;45045;45.440;9.178;2023-07-31T09:48:02;6.80;;;5.47;;
32399;SDS011;45045;45.440;9.178;2023-07-31T09:50:31;6.88;;;5.35;;
32399;SDS011;45045;45.440;9.178;2023-07-31T09:52:57;6.07;;;4.50;;
32399;SDS011;45045;45.440;9.178;2023-07-31T09:55:23;6.97;;;4.22;;
32399;SDS011;45045;45.440;9.178;2023-07-31T09:57:49;6.95;;;4.80;;
32399;SDS011;45045;45.440;9.178;2023-07-31T10:00:16;9.50;;;6.47;;
32399;SDS011;45045;45.440;9.178;2023-07-31T10:02:46;10.70;;;5.53;;
32399;SDS011;45045;45.440;9.178;2023-07-31T10:05:15;7.45;;;5.38;;
32399;SDS011;45045;45.440;9.178;2023-07-31T10:07:42;7.70;;;6.90;;
32399;SDS011;45045;45.440;9.178;2023-07-31T10:10:11;6.55;;;4.93;;
32399;SDS011;45045;45.440;9.178;2023-07-31T10:12:36;7.00;;;5.57;;
32399;SDS011;45045;45.440;9.178;2023-07-31T10:15:03;9.35;;;7.07;;
32399;SDS011;45045;45.440;9.178;2023-07-31T10:17:30;7.47;;;5.10;;
32399;SDS011;45045;45.440;9.178;2023-07-31T10:19:58;6.55;;;5.13;;
32399;SDS011;45045;45.440;9.178;2023-07-31T10:22:26;8.52;;;5.65;;
32399;SDS011;45045;45.440;9.178;2023-07-31T10:24:52;5.97;;;4.78;;
32399;SDS011;45045;45.440;9.178;2023-07-31T10:27:19;7.70;;;4.80;;
32399;SDS011;45045;45.440;9.178;2023-07-31T10:29:45;7.03;;;4.50;;
32399;SDS011;45045;45.440;9.178;2023-07-31T10:32:13;6.40;;;4.38;;
32399;SDS011;45045;45.440;9.178;2023-07-31T10:34:40;6.72;;;3.97;;
32399;SDS011;45045;45.440;9.178;2023-07-31T10:37:23;7.03;;;4.50;;
32399;SDS011;45045;45.440;9.178;2023-07-31T10:42:48;5.88;;;4.53;;
32399;SDS011;45045;45.440;9.178;2023-07-31T10:47:58;8.20;;;4.95;;
32399;SDS011;45045;45.440;9.178;2023-07-31T10:50:25;5.93;;;3.95;;
32399;SDS011;45045;45.440;9.178;2023-07-31T10:52:52;5.10;;;2.67;;
32399;SDS011;45045;45.440;9.178;2023-07-31T10:55:26;8.60;;;4.00;;
32399;SDS011;45045;45.440;9.178;2023-07-31T11:00:33;5.50;;;3.60;;
32399;SDS011;45045;45.440;9.178;2023-07-31T11:02:59;5.30;;;2.60;;
32399;SDS011;45045;45.440;9.178;2023-07-31T11:05:44;6.47;;;3.38;;
32399;SDS011;45045;45.440;9.178;2023-07-31T11:13:30;6.57;;;4.32;;
32399;SDS011;45045;45.440;9.178;2023-07-31T11:15:57;5.93;;;3.50;;
32399;SDS011;45045;45.440;9.178;2023-07-31T11:18:23;5.45;;;3.47;;
32399;SDS011;45045;45.440;9.178;2023-07-31T11:20:49;10.50;;;4.72;;
32399;SDS011;45045;45.440;9.178;2023-07-31T11:23:16;6.72;;;4.22;;
32399;SDS011;45045;45.440;9.178;2023-07-31T11:25:42;8.05;;;4.78;;
32399;SDS011;45045;45.440;9.178;2023-07-31T11:28:09;7.50;;;5.00;;
32399;SDS011;45045;45.440;9.178;2023-07-31T11:30:36;6.30;;;4.38;;
32399;SDS011;45045;45.440;9.178;2023-07-31T11:33:03;8.23;;;4.88;;
32399;SDS011;45045;45.440;9.178;2023-07-31T11:35:33;6.32;;;4.40;;
32399;SDS011;45045;45.440;9.178;2023-07-31T11:38:26;6.43;;;4.20;;
32399;SDS011;45045;45.440;9.178;2023-07-31T11:40:54;6.97;;;5.07;;
32399;SDS011;45045;45.440;9.178;2023-07-31T11:43:21;5.90;;;4.75;;
32399;SDS011;45045;45.440;9.178;2023-07-31T11:45:48;6.95;;;5.60;;
32399;SDS011;45045;45.440;9.178;2023-07-31T11:48:28;7.35;;;5.47;;
32399;SDS011;45045;45.440;9.178;2023-07-31T11:51:02;6.40;;;4.75;;
32399;SDS011;45045;45.440;9.178;2023-07-31T11:56:19;5.18;;;3.17;;
32399;SDS011;45045;45.440;9.178;2023-07-31T11:58:49;6.78;;;3.83;;
32399;SDS011;45045;45.440;9.178;2023-07-31T12:01:18;5.80;;;2.65;;
32399;SDS011;45045;45.440;9.178;2023-07-31T12:03:46;5.75;;;3.42;;
32399;SDS011;45045;45.440;9.178;2023-07-31T12:06:12;6.85;;;3.47;;
32399;SDS011;45045;45.440;9.178;2023-07-31T12:08:38;5.63;;;4.38;;
32399;SDS011;45045;45.440;9.178;2023-07-31T12:11:04;7.03;;;3.78;;
32399;SDS011;45045;45.440;9.178;2023-07-31T12:13:31;7.65;;;3.05;;
32399;SDS011;45045;45.440;9.178;2023-07-31T12:15:59;5.55;;;3.20;;
32399;SDS011;45045;45.440;9.178;2023-07-31T12:18:29;7.35;;;4.00;;
32399;SDS011;45045;45.440;9.178;2023-07-31T12:20:58;7.55;;;3.90;;
32399;SDS011;45045;45.440;9.178;2023-07-31T12:23:29;6.88;;;3.55;;
32399;SDS011;45045;45.440;9.178;2023-07-31T12:26:09;6.78;;;3.55;;
32399;SDS011;45045;45.440;9.178;2023-07-31T12:31:04;4.70;;;2.88;;
32399;SDS011;45045;45.440;9.178;2023-07-31T12:33:31;5.85;;;3.72;;
32399;SDS011;45045;45.440;9.178;2023-07-31T12:36:00;6.00;;;3.00;;
32399;SDS011;45045;45.440;9.178;2023-07-31T12:38:26;4.50;;;3.10;;
32399;SDS011;45045;45.440;9.178;2023-07-31T12:40:52;6.60;;;3.38;;
32399;SDS011;45045;45.440;9.178;2023-07-31T12:43:17;5.60;;;2.90;;
32399;SDS011;45045;45.440;9.178;2023-07-31T12:45:43;5.75;;;3.60;;
32399;SDS011;45045;45.440;9.178;2023-07-31T12:48:09;8.13;;;4.15;;
32399;SDS011;45045;45.440;9.178;2023-07-31T12:50:35;4.30;;;2.78;;
32399;SDS011;45045;45.440;9.178;2023-07-31T12:53:02;7.30;;;3.20;;
32399;SDS011;45045;45.440;9.178;2023-07-31T12:55:30;5.55;;;3.42;;
32399;SDS011;45045;45.440;9.178;2023-07-31T12:57:57;4.47;;;3.00;;
32399;SDS011;45045;45.440;9.178;2023-07-31T13:00:23;5.65;;;3.08;;
32399;SDS011;45045;45.440;9.178;2023-07-31T13:02:49;3.60;;;2.30;;
32399;SDS011;45045;45.440;9.178;2023-07-31T13:05:14;7.55;;;3.55;;
32399;SDS011;45045;45.440;9.178;2023-07-31T13:07:40;6.25;;;3.00;;
32399;SDS011;45045;45.440;9.178;2023-07-31T13:10:06;4.90;;;2.80;;
32399;SDS011;45045;45.440;9.178;2023-07-31T13:12:32;4.47;;;3.20;;
32399;SDS011;45045;45.440;9.178;2023-07-31T13:14:58;5.65;;;3.50;;
32399;SDS011;45045;45.440;9.178;2023-07-31T13:17:24;5.50;;;3.58;;
32399;SDS011;45045;45.440;9.178;2023-07-31T13:19:50;7.28;;;3.40;;
32399;SDS011;45045;45.440;9.178;2023-07-31T13:22:16;5.43;;;3.33;;
32399;SDS011;45045;45.440;9.178;2023-07-31T13:24:41;7.20;;;3.28;;
32399;SDS011;45045;45.440;9.178;2023-07-31T13:27:07;6.18;;;3.00;;
32399;SDS011;45045;45.440;9.178;2023-07-31T13:29:32;6.18;;;2.80;;
32399;SDS011;45045;45.440;9.178;2023-07-31T13:31:58;5.78;;;3.13;;
32399;SDS011;45045;45.440;9.178;2023-07-31T13:34:24;6.50;;;3.05;;
32399;SDS011;45045;45.440;9.178;2023-07-31T13:36:49;5.82;;;2.90;;
32399;SDS011;45045;45.440;9.178;2023-07-31T13:39:15;4.53;;;3.20;;
32399;SDS011;45045;45.440;9.178;2023-07-31T13:41:41;4.60;;;2.80;;
32399;SDS011;45045;45.440;9.178;2023-07-31T13:44:06;4.28;;;2.72;;
32399;SDS011;45045;45.440;9.178;2023-07-31T13:46:32;5.63;;;2.42;;
32399;SDS011;45045;45.440;9.178;2023-07-31T13:49:00;4.45;;;2.53;;
32399;SDS011;45045;45.440;9.178;2023-07-31T13:51:26;5.07;;;2.70;;
32399;SDS011;45045;45.440;9.178;2023-07-31T13:53:55;4.25;;;2.67;;
32399;SDS011;45045;45.440;9.178;2023-07-31T13:56:21;5.38;;;2.80;;
32399;SDS011;45045;45.440;9.178;2023-07-31T13:58:46;6.35;;;3.00;;
32399;SDS011;45045;45.440;9.178;2023-07-31T14:01:15;4.55;;;2.90;;
32399;SDS011;45045;45.440;9.178;2023-07-31T14:03:41;5.68;;;2.42;;
32399;SDS011;45045;45.440;9.178;2023-07-31T14:06:07;5.03;;;2.60;;
32399;SDS011;45045;45.440;9.178;2023-07-31T14:08:33;4.35;;;2.70;;
32399;SDS011;45045;45.440;9.178;2023-07-31T14:10:58;5.90;;;2.67;;
32399;SDS011;45045;45.440;9.178;2023-07-31T14:13:24;4.97;;;3.08;;
32399;SDS011;45045;45.440;9.178;2023-07-31T14:15:49;3.95;;;2.40;;
32399;SDS011;45045;45.440;9.178;2023-07-31T14:18:15;5.70;;;2.90;;
32399;SDS011;45045;45.440;9.178;2023-07-31T14:20:41;4.50;;;2.70;;
32399;SDS011;45045;45.440;9.178;2023-07-31T14:23:06;6.40;;;2.30;;
32399;SDS011;45045;45.440;9.178;2023-07-31T14:25:32;6.43;;;2.40;;
32399;SDS011;45045;45.440;9.178;2023-07-31T14:27:57;3.40;;;2.20;;
32399;SDS011;45045;45.440;9.178;2023-07-31T14:30:23;5.32;;;2.55;;
32399;SDS011;45045;45.440;9.178;2023-07-31T14:32:49;4.05;;;2.10;;
32399;SDS011;45045;45.440;9.178;2023-07-31T14:35:15;3.10;;;1.92;;
32399;SDS011;45045;45.440;9.178;2023-07-31T14:37:41;4.45;;;2.42;;
32399;SDS011;45045;45.440;9.178;2023-07-31T14:40:08;4.65;;;2.40;;
32399;SDS011;45045;45.440;9.178;2023-07-31T14:42:35;7.40;;;2.63;;
32399;SDS011;45045;45.440;9.178;2023-07-31T14:45:03;4.43;;;2.25;;
32399;SDS011;45045;45.440;9.178;2023-07-31T14:47:29;4.25;;;2.80;;
32399;SDS011;45045;45.440;9.178;2023-07-31T14:49:58;4.32;;;2.70;;
32399;SDS011;45045;45.440;9.178;2023-07-31T14:52:25;6.25;;;2.42;;
32399;SDS011;45045;45.440;9.178;2023-07-31T14:54:50;3.40;;;2.50;;
32399;SDS011;45045;45.440;9.178;2023-07-31T14:57:16;6.68;;;2.15;;
32399;SDS011;45045;45.440;9.178;2023-07-31T14:59:42;5.78;;;2.30;;
32399;SDS011;45045;45.440;9.178;2023-07-31T15:02:08;4.43;;;2.28;;
32399;SDS011;45045;45.440;9.178;2023-07-31T15:04:34;4.47;;;2.60;;
32399;SDS011;45045;45.440;9.178;2023-07-31T15:07:00;4.35;;;2.30;;
32399;SDS011;45045;45.440;9.178;2023-07-31T15:09:26;5.18;;;2.53;;